KORF/ORF METAR and TAF weather

Enter ICAO airport designator
Station Type Date Time Source
KORF METAR 2020/02/20 15:51 UTC NOAA

KORF 201551Z 06013G17KT 10SM OVC100 07/M02 A3044 RMK AO2 SLP308 T00721022


Station Type Date Time Source
KORF Decoded METAR 2020/02/20 15:51 UTC NOAA

NORFOLK INTERNATIONAL AIRPORT , VA, United States (KORF) 36-54N 076-12W 14M
Feb 20, 2020 - 10:51 AM EST / 2020.02.20 1551 UTC
Wind: from the ENE (060 degrees) at 15 MPH (13 KT) gusting to 20 MPH (17 KT):0
Visibility: 10 mile(s):0
Sky conditions: overcast
Temperature: 45.0 F (7.2 C)
Dew Point: 28.0 F (-2.2 C)
Relative Humidity: 51%
Pressure (altimeter): 30.44 in. Hg (1030 hPa)
ob: KORF 201551Z 06013G17KT 10SM OVC100 07/M02 A3044 RMK AO2 SLP308 T00721022
cycle: 16

Station Type Date Time Source
KORF TAF 2020/02/20 16:59 UTC NOAA

TAF
AMD KORF 201559Z 2016/2112 05013KT P6SM OVC150
FM201800 03012KT P6SM OVC050
FM202100 03012KT 6SM -RA OVC025
FM210000 02013G20KT 4SM -SN BR OVC010
FM210600 01018G28KT P6SM OVC020
FM211100 01020G33KT P6SM BKN060

Example: see airport list